Time;durP1;ratioP1;P1;durP2;ratioP2;P2;SDS_P1;SDS_P2;PMS_P1;PMS_P2;Temp;Humidity;BMP_temperature;BMP_pressure;BME280_temperature;BME280_humidity;BME280_pressure;Samples;Min_cycle;Max_cycle;Signal;HPM_P1;HPM_P2
2021/11/21 00:01:49;;;;;;;1.55;0.82;;;2.40;99.90;;;;;;5073828;28;20074;-83
2021/11/21 00:04:15;;;;;;;1.58;0.82;;;2.40;99.90;;;;;;5088685;28;20500;-84
2021/11/21 00:06:41;;;;;;;2.35;0.77;;;2.40;99.90;;;;;;5075858;28;20020;-82
2021/11/21 00:09:07;;;;;;;4.15;1.70;;;2.40;99.80;;;;;;5093650;28;20036;-83
2021/11/21 00:11:33;;;;;;;1.15;0.80;;;2.40;99.90;;;;;;5077185;28;20016;-84
2021/11/21 00:13:59;;;;;;;1.05;0.90;;;2.40;99.90;;;;;;5078832;28;20063;-82
2021/11/21 00:16:24;;;;;;;1.23;0.90;;;2.40;99.90;;;;;;5083583;28;20017;-85
2021/11/21 00:18:50;;;;;;;1.02;0.50;;;2.40;99.90;;;;;;5082434;28;20444;-84
2021/11/21 00:21:17;;;;;;;0.65;0.45;;;2.40;99.90;;;;;;5076234;28;20020;-84
2021/11/21 00:23:43;;;;;;;1.25;0.65;;;2.40;99.90;;;;;;5077526;28;20385;-86
2021/11/21 00:26:09;;;;;;;1.35;0.70;;;2.40;99.70;;;;;;5077057;28;20098;-84
2021/11/21 00:28:34;;;;;;;2.25;0.90;;;2.30;99.90;;;;;;5079791;28;20029;-84
2021/11/21 00:31:00;;;;;;;1.75;0.90;;;2.30;99.90;;;;;;5077492;28;20481;-84
2021/11/21 00:33:26;;;;;;;0.82;0.57;;;2.30;99.90;;;;;;5078408;28;20079;-85
2021/11/21 00:35:52;;;;;;;1.02;0.70;;;2.40;99.90;;;;;;5077630;28;20024;-84
2021/11/21 00:38:18;;;;;;;0.73;0.50;;;2.30;99.90;;;;;;5076868;28;20028;-85
2021/11/21 00:40:45;;;;;;;1.13;0.65;;;2.30;99.90;;;;;;5076546;28;20070;-84
2021/11/21 00:43:11;;;;;;;1.55;0.70;;;2.30;99.90;;;;;;5077337;28;20048;-85
2021/11/21 00:45:37;;;;;;;1.95;0.70;;;2.30;99.90;;;;;;5077374;28;20102;-84
2021/11/21 00:48:03;;;;;;;1.58;0.60;;;2.30;99.90;;;;;;5077001;28;20036;-85
2021/11/21 00:50:32;;;;;;;0.80;0.75;;;2.30;99.90;;;;;;5076459;28;20020;-85
2021/11/21 00:53:02;;;;;;;0.63;0.60;;;2.30;99.90;;;;;;5085796;28;20029;-82
2021/11/21 00:55:44;;;;;;;1.63;0.80;;;2.30;99.90;;;;;;5081292;28;20099;-83
2021/11/21 00:58:12;;;;;;;2.80;0.80;;;2.30;99.90;;;;;;5077809;28;20021;-82
2021/11/21 01:00:41;;;;;;;1.52;0.90;;;2.30;99.90;;;;;;5075221;28;20492;-82
2021/11/21 01:03:09;;;;;;;1.10;0.90;;;2.30;99.90;;;;;;5075969;28;20028;-83
2021/11/21 01:05:35;;;;;;;2.72;0.60;;;2.40;99.90;;;;;;5076216;28;20096;-83
2021/11/21 01:08:01;;;;;;;1.58;0.70;;;2.30;99.90;;;;;;5074531;28;20041;-82
2021/11/21 01:10:27;;;;;;;0.65;0.65;;;2.30;99.90;;;;;;5075060;28;20394;-83
2021/11/21 01:12:54;;;;;;;4.13;0.63;;;2.30;99.90;;;;;;5076748;28;20377;-82
2021/11/21 01:15:22;;;;;;;1.35;0.90;;;2.10;99.90;;;;;;5076060;28;20021;-82
2021/11/21 01:17:50;;;;;;;1.75;0.88;;;2.00;99.90;;;;;;5074926;28;20051;-82
2021/11/21 01:20:17;;;;;;;1.90;0.77;;;1.90;99.90;;;;;;5076256;28;20473;-83
2021/11/21 01:22:43;;;;;;;;;;;1.80;99.90;;;;;;5075798;28;20046;-83
2021/11/21 01:25:11;;;;;;;2.40;0.80;;;1.80;99.90;;;;;;5075774;28;19905;-83
2021/11/21 01:27:38;;;;;;;1.80;1.48;;;1.70;99.90;;;;;;5075596;28;20045;-84
2021/11/21 01:30:07;;;;;;;1.13;0.95;;;1.60;99.90;;;;;;5075660;28;20367;-81
2021/11/21 01:32:33;;;;;;;2.60;1.45;;;1.50;99.90;;;;;;5076923;28;20035;-83
2021/11/21 01:34:59;;;;;;;3.67;0.75;;;1.40;99.90;;;;;;5084052;28;20090;-83
2021/11/21 01:37:25;;;;;;;1.60;1.02;;;1.50;99.90;;;;;;5077138;28;20580;-81
2021/11/21 01:39:51;;;;;;;1.95;1.23;;;1.50;99.90;;;;;;5076249;28;20024;-82
2021/11/21 01:42:17;;;;;;;1.15;1.05;;;1.60;99.90;;;;;;5075177;28;20542;-83
2021/11/21 01:44:43;;;;;;;0.75;0.73;;;1.60;99.90;;;;;;5075290;28;20032;-82
2021/11/21 01:47:09;;;;;;;0.75;0.57;;;1.50;99.90;;;;;;5075151;28;20036;-81
2021/11/21 01:49:36;;;;;;;2.80;1.15;;;1.20;99.90;;;;;;5075114;28;20413;-82
2021/11/21 01:52:02;;;;;;;0.55;0.55;;;1.10;99.90;;;;;;5073459;28;20473;-83
2021/11/21 01:54:28;;;;;;;4.22;1.00;;;1.10;99.90;;;;;;5075098;28;20028;-82
2021/11/21 01:56:54;;;;;;;0.70;0.70;;;1.20;99.90;;;;;;5075117;28;20036;-82
2021/11/21 01:59:20;;;;;;;1.17;0.63;;;1.30;99.90;;;;;;5077577;28;20045;-82
2021/11/21 02:01:46;;;;;;;1.42;0.80;;;1.40;99.90;;;;;;5075578;28;20086;-83
2021/11/21 02:04:12;;;;;;;1.10;0.95;;;1.50;99.90;;;;;;5074792;28;20110;-81
2021/11/21 02:06:38;;;;;;;1.45;1.08;;;1.60;99.90;;;;;;5073850;28;20028;-81
2021/11/21 02:09:05;;;;;;;2.63;1.02;;;1.60;99.90;;;;;;5075026;28;20086;-81
2021/11/21 02:11:31;;;;;;;1.25;0.90;;;1.60;99.90;;;;;;5074680;28;20027;-83
2021/11/21 02:13:57;;;;;;;1.25;1.00;;;1.60;99.90;;;;;;5071724;28;20028;-81
2021/11/21 02:16:26;;;;;;;2.15;0.60;;;1.70;99.90;;;;;;5074621;28;20025;-81
2021/11/21 02:18:52;;;;;;;1.27;0.85;;;1.70;99.90;;;;;;5074597;28;20059;-81
2021/11/21 02:21:19;;;;;;;1.75;0.98;;;1.80;99.90;;;;;;5074425;28;20017;-81
2021/11/21 02:23:48;;;;;;;1.95;1.13;;;1.70;99.90;;;;;;5074791;28;20111;-81
2021/11/21 02:26:15;;;;;;;2.22;0.90;;;1.70;99.90;;;;;;5073284;28;20179;-81
2021/11/21 02:28:42;;;;;;;1.75;0.60;;;1.70;99.90;;;;;;5074455;28;20032;-81
2021/11/21 02:31:08;;;;;;;3.35;0.70;;;1.80;99.90;;;;;;5074274;28;20389;-81
2021/11/21 02:33:34;;;;;;;0.63;0.57;;;1.70;99.90;;;;;;5074119;28;20033;-80
2021/11/21 02:36:02;;;;;;;1.00;0.88;;;1.70;99.90;;;;;;5072946;28;20030;-80
2021/11/21 02:38:29;;;;;;;2.70;0.82;;;1.70;99.90;;;;;;5073891;28;20075;-80
2021/11/21 02:40:57;;;;;;;3.25;0.80;;;1.60;99.90;;;;;;5073848;28;20103;-79
2021/11/21 02:43:24;;;;;;;0.93;0.65;;;1.60;99.90;;;;;;5073765;28;20037;-82
2021/11/21 02:45:52;;;;;;;0.77;0.70;;;1.60;99.90;;;;;;5073730;28;20101;-82
2021/11/21 02:48:20;;;;;;;0.82;0.75;;;1.60;99.90;;;;;;5074045;28;20037;-83
2021/11/21 02:50:47;;;;;;;1.02;0.77;;;1.60;99.90;;;;;;5074220;28;20021;-82
2021/11/21 02:53:18;;;;;;;1.02;0.60;;;1.60;99.90;;;;;;5074034;28;20025;-82
2021/11/21 02:55:44;;;;;;;1.52;0.90;;;1.70;99.90;;;;;;5073824;28;20040;-82
2021/11/21 02:58:10;;;;;;;0.90;0.70;;;1.80;99.90;;;;;;5073846;28;20434;-83
2021/11/21 03:00:40;;;;;;;1.98;0.95;;;1.80;99.90;;;;;;5071937;28;20366;-83
2021/11/21 03:03:06;;;;;;;1.65;0.70;;;1.80;99.90;;;;;;5075662;28;20036;-83
2021/11/21 03:05:33;;;;;;;1.30;1.00;;;1.80;99.90;;;;;;5081552;28;20031;-82
2021/11/21 03:07:59;;;;;;;1.92;0.88;;;1.80;99.90;;;;;;5077778;28;20459;-82
2021/11/21 03:10:27;;;;;;;0.70;0.70;;;1.90;99.90;;;;;;5075442;28;20077;-81
2021/11/21 03:12:56;;;;;;;0.85;0.85;;;1.90;99.90;;;;;;5074750;28;20020;-82
2021/11/21 03:15:23;;;;;;;1.63;1.00;;;2.00;99.90;;;;;;5073606;28;20020;-81
2021/11/21 03:17:49;;;;;;;1.37;1.27;;;2.00;99.90;;;;;;5072310;28;20024;-82
2021/11/21 03:20:18;;;;;;;2.00;1.00;;;2.10;99.90;;;;;;5073465;28;20125;-82
2021/11/21 03:22:45;;;;;;;1.08;0.80;;;2.00;99.90;;;;;;5073935;28;20509;-80
2021/11/21 03:25:12;;;;;;;2.15;1.05;;;2.00;99.90;;;;;;5072236;28;20385;-80
2021/11/21 03:27:38;;;;;;;2.38;1.13;;;2.00;99.90;;;;;;5073359;28;20041;-80
2021/11/21 03:30:06;;;;;;;2.38;1.20;;;2.00;99.90;;;;;;5076859;28;20056;-79
2021/11/21 03:32:32;;;;;;;0.90;0.70;;;2.00;99.90;;;;;;5076442;28;20032;-80
2021/11/21 03:34:58;;;;;;;1.00;0.70;;;2.00;99.90;;;;;;5073234;28;20028;-80
2021/11/21 03:37:24;;;;;;;3.53;1.00;;;2.10;99.90;;;;;;5073095;28;20025;-80
2021/11/21 03:39:52;;;;;;;2.17;1.05;;;2.10;99.90;;;;;;5072851;28;20105;-81
2021/11/21 03:42:18;;;;;;;1.45;0.90;;;2.00;99.90;;;;;;5072583;28;20070;-80
2021/11/21 03:44:44;;;;;;;2.22;0.80;;;1.80;99.90;;;;;;5072928;28;20032;-79
2021/11/21 03:47:10;;;;;;;3.42;2.10;;;1.70;99.90;;;;;;5072655;28;20037;-80
2021/11/21 03:49:36;;;;;;;2.72;1.10;;;1.50;99.90;;;;;;5073029;28;20150;-80
2021/11/21 03:52:03;;;;;;;1.10;0.77;;;1.50;99.90;;;;;;5072765;28;20021;-81
2021/11/21 03:54:29;;;;;;;1.58;1.48;;;1.40;99.90;;;;;;5072751;28;20052;-81
2021/11/21 03:56:55;;;;;;;3.28;1.17;;;1.40;99.90;;;;;;5072868;28;20106;-82
2021/11/21 03:59:21;;;;;;;2.05;1.27;;;1.50;99.90;;;;;;5072828;28;20028;-83
2021/11/21 04:01:48;;;;;;;1.73;1.33;;;1.60;99.90;;;;;;5072714;28;20030;-82
2021/11/21 04:04:15;;;;;;;1.52;1.15;;;1.60;99.90;;;;;;5073781;28;20458;-83
2021/11/21 04:06:41;;;;;;;2.63;1.33;;;1.60;99.90;;;;;;5073459;28;20029;-82
2021/11/21 04:09:07;;;;;;;2.70;1.55;;;1.70;99.90;;;;;;5073086;28;20086;-83
2021/11/21 04:11:33;;;;;;;1.80;1.42;;;1.70;99.90;;;;;;5073002;28;20021;-84
2021/11/21 04:14:00;;;;;;;2.72;1.10;;;1.80;99.90;;;;;;5073007;28;20025;-83
2021/11/21 04:16:27;;;;;;;2.10;1.10;;;1.80;99.90;;;;;;5072671;28;20020;-83
2021/11/21 04:18:53;;;;;;;1.35;1.08;;;1.80;99.90;;;;;;5072788;28;20031;-82
2021/11/21 04:21:19;;;;;;;0.93;0.82;;;1.80;99.90;;;;;;5072698;28;20025;-82
2021/11/21 04:23:45;;;;;;;2.58;1.00;;;1.80;99.90;;;;;;5073066;28;20531;-83
2021/11/21 04:26:11;;;;;;;1.40;1.30;;;1.80;99.90;;;;;;5072715;28;20491;-82
2021/11/21 04:28:38;;;;;;;2.80;1.10;;;1.90;99.90;;;;;;5072752;28;20037;-82
2021/11/21 04:31:05;;;;;;;2.55;2.35;;;1.80;99.90;;;;;;5072472;28;20021;-83
2021/11/21 04:33:31;;;;;;;4.32;0.90;;;1.80;99.90;;;;;;5072335;28;20020;-83
2021/11/21 04:35:57;;;;;;;1.27;0.80;;;1.80;99.90;;;;;;5072612;28;20032;-81
2021/11/21 04:38:24;;;;;;;1.38;0.77;;;1.80;99.90;;;;;;5072596;28;20025;-83
2021/11/21 04:40:52;;;;;;;2.80;2.50;;;1.80;99.90;;;;;;5073329;28;20075;-83
2021/11/21 04:43:20;;;;;;;1.45;1.00;;;1.80;99.90;;;;;;5072560;28;20051;-83
2021/11/21 04:45:45;;;;;;;;;;;1.80;99.90;;;;;;5073301;28;20025;-83
2021/11/21 04:48:11;;;;;;;2.60;0.93;;;1.90;99.90;;;;;;5072361;28;20290;-85
2021/11/21 04:50:37;;;;;;;1.83;0.70;;;1.80;99.90;;;;;;5072491;28;20444;-83
2021/11/21 04:53:05;;;;;;;1.08;0.80;;;1.80;99.90;;;;;;5074342;28;20063;-84
2021/11/21 04:55:31;;;;;;;1.00;0.90;;;1.80;99.90;;;;;;5076304;28;20052;-82
2021/11/21 04:57:57;;;;;;;3.93;1.03;;;1.80;99.90;;;;;;5075145;28;20056;-83
2021/11/21 05:00:24;;;;;;;2.90;1.10;;;1.80;99.90;;;;;;5075258;28;20059;-85
2021/11/21 05:02:51;;;;;;;2.00;1.10;;;1.90;99.90;;;;;;5076234;28;20021;-82
2021/11/21 05:05:19;;;;;;;2.20;1.02;;;1.90;99.90;;;;;;5078025;28;20431;-82
2021/11/21 05:07:45;;;;;;;4.20;1.10;;;1.90;99.90;;;;;;5079832;28;20044;-84
2021/11/21 05:10:11;;;;;;;4.07;1.48;;;1.90;99.90;;;;;;5076953;28;20024;-83
2021/11/21 05:12:38;;;;;;;1.58;1.00;;;1.90;99.90;;;;;;5076665;28;20021;-81
2021/11/21 05:15:06;;;;;;;3.38;1.40;;;1.90;99.90;;;;;;5079909;28;20017;-82
2021/11/21 05:17:32;;;;;;;2.25;1.08;;;1.90;99.90;;;;;;5087594;28;20043;-81
2021/11/21 05:19:58;;;;;;;2.47;1.67;;;1.90;99.90;;;;;;5087756;28;20032;-84
2021/11/21 05:22:25;;;;;;;0.90;0.73;;;1.90;99.90;;;;;;5076926;28;20034;-82
2021/11/21 05:24:51;;;;;;;2.03;0.90;;;1.90;99.90;;;;;;5075652;28;20025;-82
2021/11/21 05:27:17;;;;;;;0.95;0.80;;;1.90;99.90;;;;;;5075404;28;20025;-82
2021/11/21 05:29:43;;;;;;;1.67;1.20;;;1.90;99.90;;;;;;5075661;28;20119;-81
2021/11/21 05:32:09;;;;;;;2.60;1.17;;;1.90;99.90;;;;;;5075346;28;20021;-81
2021/11/21 05:34:35;;;;;;;1.55;0.90;;;1.90;99.90;;;;;;5075815;28;20060;-80
2021/11/21 05:37:01;;;;;;;3.03;1.65;;;1.90;99.90;;;;;;5075846;28;20381;-82
2021/11/21 05:39:27;;;;;;;3.40;1.05;;;1.90;99.90;;;;;;5075227;28;20028;-81
2021/11/21 05:41:52;;;;;;;1.88;0.90;;;1.90;99.90;;;;;;5075204;28;20482;-81
2021/11/21 05:44:20;;;;;;;3.97;1.08;;;1.90;99.90;;;;;;5074374;28;20585;-82
2021/11/21 05:46:46;;;;;;;4.00;1.27;;;1.90;99.90;;;;;;5074430;28;20021;-81
2021/11/21 05:49:11;;;;;;;1.13;1.00;;;1.90;99.90;;;;;;5075095;28;20074;-82
2021/11/21 05:51:38;;;;;;;3.20;1.00;;;1.90;99.90;;;;;;5063111;28;20029;-80
2021/11/21 05:54:04;;;;;;;1.23;0.88;;;2.00;99.90;;;;;;5056501;28;20394;-80
2021/11/21 05:56:30;;;;;;;1.98;1.00;;;2.00;99.90;;;;;;5056807;28;20021;-81
2021/11/21 05:58:56;;;;;;;1.33;1.05;;;2.00;99.90;;;;;;5055632;28;20091;-80
2021/11/21 06:01:22;;;;;;;1.38;0.82;;;2.00;99.90;;;;;;5055584;28;20541;-80
2021/11/21 06:03:51;;;;;;;4.85;1.58;;;2.00;99.90;;;;;;5058043;28;20025;-81
2021/11/21 06:06:18;;;;;;;0.80;0.73;;;2.00;99.90;;;;;;5054928;28;20017;-81
2021/11/21 06:08:44;;;;;;;2.13;1.00;;;2.10;99.90;;;;;;5054382;28;20534;-81
2021/11/21 06:11:10;;;;;;;2.10;1.20;;;2.10;99.90;;;;;;5054373;28;20109;-81
2021/11/21 06:13:36;;;;;;;2.88;0.75;;;2.20;99.90;;;;;;5054385;28;20108;-82
2021/11/21 06:16:02;;;;;;;2.50;1.20;;;2.20;99.90;;;;;;5054330;28;20533;-84
2021/11/21 06:18:28;;;;;;;1.42;0.98;;;2.20;99.90;;;;;;5054677;28;20108;-84
2021/11/21 06:20:54;;;;;;;1.83;1.05;;;2.20;99.90;;;;;;5054324;28;20025;-82
2021/11/21 06:23:20;;;;;;;1.13;0.73;;;2.20;99.90;;;;;;5054039;28;20620;-79
2021/11/21 06:25:46;;;;;;;2.55;1.50;;;2.20;99.90;;;;;;5054204;28;20028;-80
2021/11/21 06:28:12;;;;;;;5.20;1.20;;;2.20;99.90;;;;;;5052662;28;20037;-81
2021/11/21 06:30:40;;;;;;;4.97;1.67;;;2.20;99.80;;;;;;5054243;28;20091;-83
2021/11/21 06:33:06;;;;;;;3.15;2.20;;;2.30;99.90;;;;;;5064295;28;20035;-82
2021/11/21 06:35:33;;;;;;;1.55;1.10;;;2.40;99.80;;;;;;5073857;28;20374;-81
2021/11/21 06:37:59;;;;;;;6.78;1.88;;;2.30;99.70;;;;;;5073054;28;20473;-82
2021/11/21 06:40:25;;;;;;;3.67;0.93;;;2.30;99.50;;;;;;5074079;28;20035;-84
2021/11/21 06:42:51;;;;;;;1.17;0.90;;;2.40;99.30;;;;;;5073791;28;20091;-81
2021/11/21 06:45:17;;;;;;;1.52;1.00;;;2.40;99.30;;;;;;5074074;28;20024;-81
2021/11/21 06:47:43;;;;;;;2.10;0.80;;;2.40;99.20;;;;;;5072495;28;20032;-81
2021/11/21 06:50:12;;;;;;;1.52;0.85;;;2.40;99.00;;;;;;5074100;28;20017;-82
2021/11/21 06:52:39;;;;;;;4.72;1.40;;;2.40;98.80;;;;;;5075704;28;20473;-83
2021/11/21 06:55:06;;;;;;;3.10;1.10;;;2.50;98.80;;;;;;5073992;28;20035;-82
2021/11/21 06:57:33;;;;;;;1.60;1.00;;;2.50;98.80;;;;;;5074875;28;20319;-82
2021/11/21 07:00:01;;;;;;;0.95;0.85;;;2.60;98.80;;;;;;5074079;28;20060;-82
2021/11/21 07:02:27;;;;;;;2.05;1.40;;;2.60;98.50;;;;;;5072901;28;20039;-81
2021/11/21 07:04:53;;;;;;;3.58;1.60;;;2.70;98.40;;;;;;5073312;28;20111;-82
2021/11/21 07:07:18;;;;;;;3.33;0.90;;;2.70;98.00;;;;;;5074319;28;20127;-81
2021/11/21 07:09:44;;;;;;;2.10;1.13;;;2.70;97.90;;;;;;5077997;28;20016;-80
2021/11/21 07:12:12;;;;;;;1.63;1.00;;;2.70;97.80;;;;;;5074701;28;20047;-80
2021/11/21 07:14:38;;;;;;;1.50;0.82;;;2.70;97.50;;;;;;5073764;28;20027;-81
2021/11/21 07:17:05;;;;;;;2.80;1.33;;;2.70;97.40;;;;;;5071002;28;20372;-80
2021/11/21 07:19:30;;;;;;;2.03;1.08;;;2.80;97.20;;;;;;5073262;28;20024;-80
2021/11/21 07:21:56;;;;;;;2.00;1.40;;;2.80;97.00;;;;;;5072831;28;20051;-82
2021/11/21 07:24:22;;;;;;;3.05;1.33;;;2.80;97.10;;;;;;5074382;28;20021;-81
2021/11/21 07:26:48;;;;;;;2.28;1.50;;;2.80;97.20;;;;;;5073526;28;20024;-81
2021/11/21 07:29:15;;;;;;;2.85;1.15;;;2.80;97.20;;;;;;5073386;28;20033;-82
2021/11/21 07:31:41;;;;;;;4.32;2.40;;;2.80;97.00;;;;;;5073015;28;20029;-81
2021/11/21 07:34:07;;;;;;;2.60;1.25;;;2.80;96.90;;;;;;5073150;28;20076;-82
2021/11/21 07:36:33;;;;;;;2.55;1.55;;;2.90;96.80;;;;;;5074168;28;20543;-83
2021/11/21 07:39:00;;;;;;;6.55;1.30;;;2.90;96.70;;;;;;5075054;28;20035;-83
2021/11/21 07:41:26;;;;;;;0.98;0.80;;;3.00;96.80;;;;;;5074111;28;20185;-82
2021/11/21 07:43:52;;;;;;;1.05;0.90;;;3.00;96.80;;;;;;5073245;28;20044;-83
2021/11/21 07:46:18;;;;;;;2.38;1.58;;;3.00;96.30;;;;;;5072726;28;20488;-82
2021/11/21 07:48:44;;;;;;;1.30;0.95;;;3.00;96.40;;;;;;5072898;28;20036;-82
2021/11/21 07:51:11;;;;;;;1.95;1.48;;;3.10;96.20;;;;;;5073320;28;20374;-82
2021/11/21 07:53:37;;;;;;;;;;;3.10;95.90;;;;;;5073570;28;20165;-82
2021/11/21 07:56:05;;;;;;;4.18;1.35;;;3.20;96.20;;;;;;5075202;28;19904;-81
2021/11/21 07:58:31;;;;;;;4.57;1.73;;;3.10;95.50;;;;;;5072227;28;20446;-82
2021/11/21 08:00:57;;;;;;;1.88;1.10;;;3.10;95.60;;;;;;5072871;28;20021;-82
2021/11/21 08:03:23;;;;;;;1.30;1.00;;;3.10;95.70;;;;;;5072566;28;20103;-81
2021/11/21 08:05:49;;;;;;;4.43;1.20;;;3.20;95.60;;;;;;5071483;28;20016;-82
2021/11/21 08:08:15;;;;;;;1.35;1.13;;;3.20;95.20;;;;;;5074137;28;20083;-83
2021/11/21 08:10:41;;;;;;;6.45;2.00;;;3.20;95.00;;;;;;5073473;28;20059;-80
2021/11/21 08:13:08;;;;;;;1.98;1.00;;;3.20;95.00;;;;;;5073022;28;20095;-84
2021/11/21 08:15:34;;;;;;;4.35;1.33;;;3.20;94.90;;;;;;5074211;28;20020;-84
2021/11/21 08:18:00;;;;;;;1.83;1.40;;;3.30;94.70;;;;;;5074361;28;20040;-83
2021/11/21 08:20:26;;;;;;;4.40;1.13;;;3.30;94.60;;;;;;5073673;28;20390;-83
2021/11/21 08:22:53;;;;;;;2.20;1.33;;;3.50;94.40;;;;;;5073301;28;20032;-82
2021/11/21 08:25:19;;;;;;;2.40;1.57;;;3.50;94.10;;;;;;5073198;28;20020;-82
2021/11/21 08:27:45;;;;;;;6.78;1.83;;;3.50;93.90;;;;;;5076070;28;20366;-83
2021/11/21 08:30:11;;;;;;;2.97;1.25;;;3.50;93.80;;;;;;5076425;28;20017;-83
2021/11/21 08:32:37;;;;;;;4.00;1.70;;;3.50;93.40;;;;;;5077779;28;20078;-83
2021/11/21 08:35:05;;;;;;;3.03;2.60;;;3.60;93.40;;;;;;5076913;28;20023;-81
2021/11/21 08:37:31;;;;;;;2.22;1.38;;;3.60;93.40;;;;;;5076622;28;20481;-82
2021/11/21 08:39:57;;;;;;;1.48;1.08;;;3.70;93.10;;;;;;5076360;28;20036;-82
2021/11/21 08:42:23;;;;;;;3.83;1.60;;;3.70;92.80;;;;;;5076631;28;20019;-82
2021/11/21 08:44:48;;;;;;;3.58;2.22;;;3.80;92.60;;;;;;5076523;28;20364;-82
2021/11/21 08:47:15;;;;;;;2.15;1.33;;;3.80;92.40;;;;;;5075784;28;20028;-82
2021/11/21 08:49:41;;;;;;;2.60;1.73;;;3.80;92.40;;;;;;5078250;28;20059;-83
2021/11/21 08:52:08;;;;;;;2.72;1.92;;;3.90;92.00;;;;;;5079385;28;20025;-82
2021/11/21 08:54:34;;;;;;;2.33;1.70;;;3.90;91.70;;;;;;5089453;28;20020;-82
2021/11/21 08:57:00;;;;;;;2.00;1.30;;;3.90;91.20;;;;;;5091967;28;20029;-82
2021/11/21 08:59:26;;;;;;;3.05;0.80;;;3.90;90.40;;;;;;5078095;28;20032;-83
2021/11/21 09:01:52;;;;;;;1.55;0.85;;;3.90;90.70;;;;;;5075971;28;20032;-82
2021/11/21 09:04:18;;;;;;;1.00;0.82;;;3.90;90.10;;;;;;5079615;28;20028;-81
2021/11/21 09:06:46;;;;;;;4.10;1.33;;;4.00;90.00;;;;;;5076825;28;20017;-82
2021/11/21 09:09:12;;;;;;;2.22;0.95;;;4.00;90.00;;;;;;5076472;28;20036;-82
2021/11/21 09:11:39;;;;;;;2.00;1.33;;;4.20;89.30;;;;;;5075143;28;20069;-83
2021/11/21 09:14:06;;;;;;;1.25;1.10;;;4.20;87.40;;;;;;5077629;28;20028;-83
2021/11/21 09:16:32;;;;;;;1.80;0.93;;;4.20;87.60;;;;;;5077294;28;20043;-82
2021/11/21 09:18:58;;;;;;;6.05;1.95;;;4.30;86.10;;;;;;5075932;28;20028;-84
2021/11/21 09:21:24;;;;;;;3.90;1.50;;;4.20;86.40;;;;;;5075481;28;20036;-84
2021/11/21 09:23:50;;;;;;;2.90;0.75;;;4.30;85.90;;;;;;5075671;28;20098;-84
2021/11/21 09:26:16;;;;;;;2.22;1.30;;;4.20;85.50;;;;;;5075412;28;20035;-82
2021/11/21 09:28:42;;;;;;;4.95;1.63;;;4.20;85.80;;;;;;5069612;28;20477;-82
2021/11/21 09:31:08;;;;;;;1.33;0.75;;;4.20;85.50;;;;;;5069122;28;20012;-83
2021/11/21 09:33:34;;;;;;;2.63;1.40;;;4.20;84.80;;;;;;5073177;28;20078;-84
2021/11/21 09:36:01;;;;;;;2.00;0.80;;;4.20;84.60;;;;;;5077572;28;20401;-83
2021/11/21 09:38:27;;;;;;;2.22;1.20;;;4.10;84.40;;;;;;5081678;28;20025;-82
2021/11/21 09:40:54;;;;;;;4.68;1.27;;;4.10;84.70;;;;;;5084961;28;20029;-82
2021/11/21 09:43:20;;;;;;;2.63;1.52;;;4.10;85.30;;;;;;5075503;28;20462;-83
2021/11/21 09:45:47;;;;;;;5.32;2.67;;;4.10;84.70;;;;;;5075021;28;20134;-83
2021/11/21 09:48:15;;;;;;;6.30;1.97;;;4.10;84.60;;;;;;5078066;28;20029;-84
2021/11/21 09:50:41;;;;;;;;;;;4.10;84.70;;;;;;5075364;28;20404;-87
2021/11/21 09:53:08;;;;;;;8.93;2.75;;;4.20;85.80;;;;;;5073554;28;19910;-83
2021/11/21 09:55:35;;;;;;;4.90;1.45;;;4.20;84.70;;;;;;5075081;28;20162;-83
2021/11/21 09:58:02;;;;;;;2.10;1.45;;;4.20;84.60;;;;;;5077676;28;20016;-82
2021/11/21 10:00:30;;;;;;;7.47;2.08;;;4.20;84.90;;;;;;5077261;28;20401;-82
2021/11/21 10:03:06;;;;;;;3.28;1.60;;;4.20;83.90;;;;;;5063466;28;20389;-80
2021/11/21 10:05:42;;;;;;;3.85;1.20;;;4.20;84.20;;;;;;5074785;28;20021;-82
2021/11/21 10:08:11;;;;;;;3.67;1.75;;;4.10;84.30;;;;;;5074417;28;20104;-83
2021/11/21 10:10:43;;;;;;;3.10;1.48;;;4.10;84.00;;;;;;5076687;28;20073;-83
2021/11/21 10:13:36;;;;;;;2.13;1.42;;;4.10;84.50;;;;;;5078601;28;20477;-87
2021/11/21 10:16:17;;;;;;;5.72;2.88;;;4.10;83.80;;;;;;5077164;28;20036;-87
2021/11/21 10:19:02;;;;;;;5.10;2.20;;;4.10;84.10;;;;;;5069492;28;20505;-92
2021/11/21 10:21:51;;;;;;;0.93;0.88;;;4.10;84.20;;;;;;5082740;28;20036;-92
2021/11/21 10:24:30;;;;;;;2.95;1.70;;;4.20;84.40;;;;;;5084245;28;20031;-92
2021/11/21 10:27:19;;;;;;;2.70;1.45;;;4.20;84.10;;;;;;5083177;28;20024;-92
2021/11/21 10:29:49;;;;;;;3.55;1.38;;;4.20;84.10;;;;;;5085871;28;20098;-87
2021/11/21 10:32:19;;;;;;;3.97;2.20;;;4.10;83.00;;;;;;5057280;28;20488;-82
2021/11/21 10:34:59;;;;;;;3.83;2.30;;;4.10;82.10;;;;;;5072088;28;20072;-83
2021/11/21 10:37:36;;;;;;;2.13;1.40;;;4.00;81.90;;;;;;5056340;28;20029;-84
2021/11/21 10:40:10;;;;;;;2.80;1.58;;;3.90;82.60;;;;;;5057580;28;20028;-85
2021/11/21 10:42:38;;;;;;;2.88;1.60;;;3.90;83.30;;;;;;5061547;28;20053;-84
2021/11/21 10:45:05;;;;;;;2.47;1.58;;;3.90;83.70;;;;;;5074396;28;20036;-83
2021/11/21 10:47:45;;;;;;;3.88;1.52;;;3.90;84.00;;;;;;5072143;28;20433;-83
2021/11/21 10:50:25;;;;;;;1.70;1.23;;;4.00;83.50;;;;;;5064786;28;20378;-83
2021/11/21 10:52:51;;;;;;;2.25;1.25;;;4.00;83.50;;;;;;5072271;28;20473;-84
2021/11/21 10:55:19;;;;;;;3.53;1.85;;;4.00;83.30;;;;;;5076092;28;20147;-86
2021/11/21 10:57:45;;;;;;;2.22;1.35;;;3.90;83.50;;;;;;5056287;28;20037;-83
2021/11/21 11:00:20;;;;;;;2.75;1.10;;;4.00;83.20;;;;;;5052180;28;20040;-83
2021/11/21 11:02:46;;;;;;;1.13;0.80;;;4.00;82.80;;;;;;5070303;28;20434;-82
2021/11/21 11:05:21;;;;;;;1.38;0.95;;;4.00;82.90;;;;;;5054205;28;20477;-82
2021/11/21 11:07:47;;;;;;;3.05;1.23;;;4.00;82.40;;;;;;5069734;28;20490;-85
2021/11/21 11:10:23;;;;;;;5.07;2.00;;;4.00;82.30;;;;;;5058410;28;20081;-87
2021/11/21 11:12:52;;;;;;;3.35;1.20;;;4.10;82.30;;;;;;5074812;28;20033;-83
2021/11/21 11:15:19;;;;;;;1.55;1.35;;;4.00;82.10;;;;;;5074439;28;20016;-81
2021/11/21 11:17:45;;;;;;;2.78;1.27;;;4.00;82.40;;;;;;5075439;28;20032;-81
2021/11/21 11:20:16;;;;;;;3.45;1.20;;;4.00;82.70;;;;;;5073456;28;20024;-82
2021/11/21 11:22:43;;;;;;;2.70;1.42;;;4.00;83.00;;;;;;5073193;28;20023;-82
2021/11/21 11:25:30;;;;;;;4.60;2.93;;;4.00;83.30;;;;;;5073161;28;20106;-81
2021/11/21 11:28:33;;;;;;;4.13;1.58;;;4.00;84.10;;;;;;5051864;28;20290;-82
2021/11/21 11:30:59;;;;;;;4.97;2.92;;;4.00;83.30;;;;;;5052990;28;20028;-81
2021/11/21 11:33:37;;;;;;;6.03;4.00;;;4.00;83.30;;;;;;5052926;28;20442;-81
2021/11/21 11:36:18;;;;;;;6.60;2.92;;;4.00;83.80;;;;;;5053089;28;20020;-81
2021/11/21 11:38:58;;;;;;;3.22;1.85;;;4.00;84.00;;;;;;5053638;28;20098;-83
2021/11/21 11:41:31;;;;;;;2.80;1.30;;;4.00;84.00;;;;;;5059760;28;20080;-84
2021/11/21 11:43:58;;;;;;;4.20;1.50;;;3.90;84.30;;;;;;5064827;28;20124;-85
2021/11/21 11:46:31;;;;;;;3.88;1.45;;;3.90;84.60;;;;;;5061795;28;20016;-83
2021/11/21 11:49:08;;;;;;;3.65;1.52;;;4.00;84.90;;;;;;5070375;28;20379;-83
2021/11/21 11:51:34;;;;;;;3.38;1.45;;;4.00;84.90;;;;;;5055979;28;20025;-83
2021/11/21 11:54:15;;;;;;;6.93;1.80;;;4.00;85.00;;;;;;5054059;28;20478;-85
2021/11/21 11:56:50;;;;;;;5.13;1.80;;;4.00;85.10;;;;;;5054342;28;20017;-84
2021/11/21 11:59:28;;;;;;;4.10;2.20;;;4.00;85.10;;;;;;5059690;28;20032;-83
2021/11/21 12:01:56;;;;;;;3.40;1.80;;;4.00;85.20;;;;;;5072008;28;20389;-85
2021/11/21 12:04:25;;;;;;;7.15;3.55;;;4.00;85.30;;;;;;5070754;28;20028;-84
2021/11/21 12:06:57;;;;;;;2.33;1.73;;;4.00;85.30;;;;;;5072184;28;20363;-80
2021/11/21 12:09:25;;;;;;;4.25;1.60;;;4.00;85.50;;;;;;5073569;28;20024;-85
2021/11/21 12:11:57;;;;;;;3.08;1.73;;;4.00;85.20;;;;;;5073253;28;20078;-85
2021/11/21 12:14:27;;;;;;;5.47;1.52;;;4.00;85.10;;;;;;5075484;28;20020;-82
2021/11/21 12:17:11;;;;;;;6.47;2.90;;;4.00;85.20;;;;;;5075318;28;20475;-83
2021/11/21 12:19:43;;;;;;;11.27;5.78;;;4.00;85.30;;;;;;5073748;28;20025;-85
2021/11/21 12:22:25;;;;;;;5.47;2.78;;;4.00;85.40;;;;;;5074878;28;20024;-91
2021/11/21 12:24:55;;;;;;;2.90;1.38;;;4.10;85.50;;;;;;5076313;28;20022;-88
2021/11/21 12:27:33;;;;;;;4.07;1.73;;;4.00;85.00;;;;;;5080307;28;20025;-92
2021/11/21 12:30:22;;;;;;;4.47;1.83;;;4.00;85.10;;;;;;5082583;28;20077;-90
2021/11/21 12:32:56;;;;;;;5.95;1.85;;;3.90;85.30;;;;;;5086893;28;20029;-94
2021/11/21 12:35:29;;;;;;;8.30;1.55;;;3.90;85.80;;;;;;5085863;28;20045;-90
2021/11/21 12:38:21;;;;;;;4.75;2.05;;;3.90;86.10;;;;;;5090976;28;20036;-93
2021/11/21 12:40:53;;;;;;;7.22;3.35;;;3.90;86.60;;;;;;5093424;28;20017;-90
2021/11/21 12:43:21;;;;;;;4.85;1.80;;;3.80;86.90;;;;;;5095210;28;20140;-90
2021/11/21 12:46:00;;;;;;;5.25;2.30;;;3.80;86.70;;;;;;5075074;28;20052;-87
2021/11/21 12:48:29;;;;;;;2.78;1.35;;;3.80;87.30;;;;;;5037054;28;20044;-94
2021/11/21 12:50:58;;;;;;;3.72;1.90;;;3.80;85.80;;;;;;5032965;28;20033;-94
2021/11/21 12:53:39;;;;;;;4.47;2.30;;;3.70;85.90;;;;;;5027985;28;20293;-94
2021/11/21 12:56:12;;;;;;;4.22;1.80;;;3.70;86.10;;;;;;5048257;28;20122;-94
2021/11/21 12:58:43;;;;;;;2.30;1.48;;;3.70;86.00;;;;;;5017156;28;20030;-93
2021/11/21 13:01:12;;;;;;;1.63;1.33;;;3.80;85.70;;;;;;5029269;28;20037;-94
2021/11/21 13:03:41;;;;;;;5.43;1.45;;;3.80;85.30;;;;;;5032988;28;20028;-94